Time;durP1;ratioP1;P1;durP2;ratioP2;P2;SDS_P1;SDS_P2;PMS_P1;PMS_P2;Temp;Humidity;BMP_temperature;BMP_pressure;BME280_temperature;BME280_humidity;BME280_pressure;Samples;Min_cycle;Max_cycle;Signal;HPM_P1;HPM_P2
2021/12/02 00:00:42;;;;;;;;;;;20.50;42.20;;;;;;5095668;28;20021;-59
2021/12/02 00:03:09;;;;;;;;;;;20.50;42.00;;;;;;5090945;28;19928;-61
2021/12/02 00:05:36;;;;;;;;;;;20.50;41.90;;;;;;5092087;28;19931;-59
2021/12/02 00:08:04;;;;;;;;;;;20.50;41.90;;;;;;5091338;28;20030;-60
2021/12/02 00:10:31;;;;;;;;;;;20.50;41.90;;;;;;5093329;28;19924;-60
2021/12/02 00:12:58;;;;;;;;;;;20.50;41.90;;;;;;5096190;28;19932;-59
2021/12/02 00:15:26;;;;;;;;;;;20.50;41.90;;;;;;5101798;28;19983;-60
2021/12/02 00:17:57;;;;;;;;;;;20.50;41.90;;;;;;5093528;28;19931;-61
2021/12/02 00:23:28;;;;;;;;;;;20.50;41.90;;;;;;5084655;28;20038;-57
2021/12/02 00:25:54;;;;;;;;;;;20.50;41.90;;;;;;5088991;28;19923;-61
2021/12/02 00:28:21;;;;;;;;;;;20.50;41.90;;;;;;5088181;28;19935;-61
2021/12/02 00:30:48;;;;;;;;;;;20.50;41.90;;;;;;5095587;28;19924;-61
2021/12/02 00:33:16;;;;;;;;;;;20.50;41.90;;;;;;5095893;28;19970;-61
2021/12/02 00:35:43;;;;;;;;;;;20.50;41.90;;;;;;5098857;28;20146;-60
2021/12/02 00:38:10;;;;;;;;;;;20.50;41.90;;;;;;5085335;28;19931;-59
2021/12/02 00:40:40;;;;;;;;;;;20.50;41.90;;;;;;5069708;28;20031;-62
2021/12/02 00:43:06;;;;;;;;;;;20.40;41.80;;;;;;5075190;28;20369;-57
2021/12/02 00:45:33;;;;;;;;;;;20.40;41.80;;;;;;5077587;28;19935;-61
2021/12/02 00:48:00;;;;;;;;;;;20.40;41.80;;;;;;5077323;28;19924;-60
2021/12/02 00:50:28;;;;;;;;;;;20.50;41.80;;;;;;5104914;28;20007;-58
2021/12/02 00:52:54;;;;;;;;;;;20.40;41.80;;;;;;5088845;28;19924;-61
2021/12/02 00:55:21;;;;;;;;;;;20.40;41.80;;;;;;5101545;28;20603;-58
2021/12/02 00:57:48;;;;;;;;;;;20.40;41.70;;;;;;5097933;28;19932;-60
2021/12/02 01:00:15;;;;;;;;;;;20.40;41.80;;;;;;5089024;28;20034;-60
2021/12/02 01:02:42;;;;;;;;;;;20.40;41.70;;;;;;5099327;28;19924;-58
2021/12/02 01:05:09;;;;;;;;;;;20.40;41.70;;;;;;5090291;28;20030;-60
2021/12/02 01:07:37;;;;;;;;;;;20.40;41.70;;;;;;5099520;28;19924;-59
2021/12/02 01:10:04;;;;;;;;;;;20.40;41.60;;;;;;5078841;28;20305;-60
2021/12/02 01:12:31;;;;;;;;;;;20.40;41.60;;;;;;5098139;28;19924;-58
2021/12/02 01:14:58;;;;;;;;;;;20.40;41.60;;;;;;5102375;28;20402;-59
2021/12/02 01:17:25;;;;;;;;;;;20.40;41.60;;;;;;5102755;28;20035;-58
2021/12/02 01:19:51;;;;;;;;;;;20.40;41.60;;;;;;5106813;28;19931;-58
2021/12/02 01:22:18;;;;;;;;;;;20.40;41.60;;;;;;5097975;28;20288;-59
2021/12/02 01:24:46;;;;;;;;;;;20.40;41.50;;;;;;5103347;28;19963;-56
2021/12/02 01:27:13;;;;;;;;;;;20.40;41.60;;;;;;5103673;28;20288;-57
2021/12/02 01:29:40;;;;;;;;;;;20.40;41.60;;;;;;5100236;28;19944;-56
2021/12/02 01:32:07;;;;;;;;;;;20.40;41.50;;;;;;5099566;28;19972;-58
2021/12/02 01:34:34;;;;;;;;;;;20.40;41.50;;;;;;5101847;28;19992;-57
2021/12/02 01:37:01;;;;;;;;;;;20.40;41.50;;;;;;5105688;28;19930;-58
2021/12/02 01:39:30;;;;;;;;;;;20.40;41.50;;;;;;5095617;28;19931;-59
2021/12/02 01:41:59;;;;;;;;;;;20.40;41.50;;;;;;5105879;28;19935;-55
2021/12/02 01:44:26;;;;;;;;;;;20.40;41.50;;;;;;5089517;28;20392;-59
2021/12/02 01:46:55;;;;;;;;;;;20.40;41.50;;;;;;5103027;28;19963;-60
2021/12/02 01:49:22;;;;;;;;;;;20.40;41.40;;;;;;5100031;28;20281;-58
2021/12/02 01:51:50;;;;;;;;;;;20.40;41.40;;;;;;5087304;28;20432;-61
2021/12/02 01:54:17;;;;;;;;;;;20.40;41.40;;;;;;5095701;28;20000;-61
2021/12/02 01:56:45;;;;;;;;;;;20.40;41.40;;;;;;5080225;28;20399;-58
2021/12/02 01:59:14;;;;;;;;;;;20.40;41.40;;;;;;5092076;28;19934;-58
2021/12/02 02:01:41;;;;;;;;;;;20.40;41.40;;;;;;5074654;28;20433;-58
2021/12/02 02:04:08;;;;;;;;;;;20.40;41.40;;;;;;5100080;28;19924;-58
2021/12/02 02:06:37;;;;;;;;;;;20.40;41.40;;;;;;5102979;28;19924;-56
2021/12/02 02:09:04;;;;;;;;;;;20.40;41.40;;;;;;5107214;28;19927;-58
2021/12/02 02:11:31;;;;;;;;;;;20.40;41.40;;;;;;5093857;28;19963;-57
2021/12/02 02:13:59;;;;;;;;;;;20.40;41.30;;;;;;5084093;28;19934;-58
2021/12/02 02:16:27;;;;;;;;;;;20.40;41.30;;;;;;5102591;28;19963;-59
2021/12/02 02:18:54;;;;;;;;;;;20.40;41.30;;;;;;5107411;28;20320;-57
2021/12/02 02:21:23;;;;;;;;;;;20.40;41.30;;;;;;5083853;28;19925;-59
2021/12/02 02:23:51;;;;;;;;;;;20.40;41.30;;;;;;5103369;27;19992;-59
2021/12/02 02:26:22;;;;;;;;;;;20.40;41.30;;;;;;5091910;28;19931;-59
2021/12/02 02:28:50;;;;;;;;;;;20.40;41.30;;;;;;5085295;28;19928;-61
2021/12/02 02:31:17;;;;;;;;;;;20.40;41.30;;;;;;5096008;28;19930;-57
2021/12/02 02:33:44;;;;;;;;;;;20.40;41.30;;;;;;5098973;28;19959;-57
2021/12/02 02:36:11;;;;;;;;;;;20.40;41.30;;;;;;5098673;28;20396;-55
2021/12/02 02:38:39;;;;;;;;;;;20.40;41.30;;;;;;5103149;27;19931;-59
2021/12/02 02:41:08;;;;;;;;;;;20.40;41.30;;;;;;5102977;27;19923;-59
2021/12/02 02:43:35;;;;;;;;;;;20.40;41.30;;;;;;5125142;27;20440;-55
2021/12/02 02:46:02;;;;;;;;;;;20.40;41.30;;;;;;5102645;28;19924;-55
2021/12/02 02:48:29;;;;;;;;;;;20.40;41.30;;;;;;5102508;27;19923;-60
2021/12/02 02:50:56;;;;;;;;;;;20.40;41.20;;;;;;5103940;27;20330;-60
2021/12/02 02:53:24;;;;;;;;;;;20.40;41.90;;;;;;5124065;27;20343;-59
2021/12/02 02:56:00;;;;;;;;;;;20.40;41.20;;;;;;5111070;27;19923;-60
2021/12/02 02:58:32;;;;;;;;;;;20.40;41.20;;;;;;5096225;28;19924;-58
2021/12/02 03:01:05;;;;;;;;;;;20.40;41.20;;;;;;5105444;27;20013;-58
2021/12/02 03:03:38;;;;;;;;;;;20.40;41.20;;;;;;5121759;27;20285;-59
2021/12/02 03:06:20;;;;;;;;;;;20.40;41.20;;;;;;5099283;27;20368;-58
2021/12/02 03:08:51;;;;;;;;;;;20.40;41.20;;;;;;5087383;27;19930;-58
2021/12/02 03:11:20;;;;;;;;;;;20.40;41.20;;;;;;5110505;27;19931;-59
2021/12/02 03:13:50;;;;;;;;;;;20.40;41.20;;;;;;5123971;27;20018;-60
2021/12/02 03:19:01;;;;;;;;;;;20.40;41.20;;;;;;5104855;28;19930;-59
2021/12/02 03:21:28;;;;;;;;;;;20.40;41.10;;;;;;5101647;28;19928;-57
2021/12/02 03:23:55;;;;;;;;;;;20.40;41.10;;;;;;5097999;28;19928;-59
2021/12/02 03:26:23;;;;;;;;;;;20.40;41.20;;;;;;5103047;27;20356;-58
2021/12/02 03:28:51;;;;;;;;;;;20.40;41.10;;;;;;5102398;28;20020;-58
2021/12/02 03:31:18;;;;;;;;;;;20.40;41.10;;;;;;5098023;27;19933;-59
2021/12/02 03:33:44;;;;;;;;;;;20.40;41.10;;;;;;5105843;28;19934;-60
2021/12/02 03:36:12;;;;;;;;;;;20.40;41.10;;;;;;5114154;27;20031;-60
2021/12/02 03:38:39;;;;;;;;;;;20.40;41.10;;;;;;5091022;28;19924;-61
2021/12/02 03:41:06;;;;;;;;;;;20.40;41.00;;;;;;5113148;28;19938;-60
2021/12/02 03:43:35;;;;;;;;;;;20.30;41.00;;;;;;5116586;28;20284;-57
2021/12/02 03:46:02;;;;;;;;;;;20.30;40.90;;;;;;5101613;28;20004;-61
2021/12/02 03:48:28;;;;;;;;;;;20.30;40.90;;;;;;5110170;28;19924;-57
2021/12/02 03:50:56;;;;;;;;;;;20.30;40.90;;;;;;5096306;28;20395;-58
2021/12/02 03:53:23;;;;;;;;;;;20.30;40.90;;;;;;5104383;28;19923;-59
2021/12/02 03:55:49;;;;;;;;;;;20.30;40.90;;;;;;5106790;28;20067;-58
2021/12/02 03:58:16;;;;;;;;;;;20.30;40.90;;;;;;5094382;28;19969;-60
2021/12/02 04:00:44;;;;;;;;;;;20.40;40.90;;;;;;5106317;28;19933;-61
2021/12/02 04:03:10;;;;;;;;;;;20.40;41.00;;;;;;5094588;28;19931;-61
2021/12/02 04:05:37;;;;;;;;;;;20.30;40.80;;;;;;5126221;28;19960;-61
2021/12/02 04:08:04;;;;;;;;;;;20.30;40.80;;;;;;5110502;28;19932;-62
2021/12/02 04:10:32;;;;;;;;;;;20.30;40.80;;;;;;5106797;28;19966;-58
2021/12/02 04:13:06;;;;;;;;;;;20.30;40.80;;;;;;5092352;28;20019;-57
2021/12/02 04:15:35;;;;;;;;;;;20.30;40.80;;;;;;5099506;28;19931;-61
2021/12/02 04:18:03;;;;;;;;;;;20.30;40.80;;;;;;5110754;27;20022;-58
2021/12/02 04:20:30;;;;;;;;;;;20.30;40.80;;;;;;5110650;27;20296;-57
2021/12/02 04:22:57;;;;;;;;;;;20.30;40.80;;;;;;5100700;28;19935;-60
2021/12/02 04:25:24;;;;;;;;;;;20.40;40.90;;;;;;5095113;27;19924;-61
2021/12/02 04:27:50;;;;;;;;;;;20.30;40.70;;;;;;5109476;27;19927;-59
2021/12/02 04:30:19;;;;;;;;;;;20.30;40.70;;;;;;5114192;27;20024;-58
2021/12/02 04:32:46;;;;;;;;;;;20.30;40.70;;;;;;5108159;27;19935;-57
2021/12/02 04:35:15;;;;;;;;;;;20.30;40.70;;;;;;5120387;27;20352;-58
2021/12/02 04:37:43;;;;;;;;;;;20.30;40.70;;;;;;5092788;27;20376;-59
2021/12/02 04:40:11;;;;;;;;;;;20.30;40.70;;;;;;5106355;27;19935;-60
2021/12/02 04:42:38;;;;;;;;;;;20.30;40.70;;;;;;5107431;28;20372;-60
2021/12/02 04:45:05;;;;;;;;;;;20.30;40.70;;;;;;5096596;28;20244;-58
2021/12/02 04:47:31;;;;;;;;;;;20.30;40.60;;;;;;5101257;28;20414;-59
2021/12/02 04:49:58;;;;;;;;;;;20.30;40.60;;;;;;5097720;27;19996;-59
2021/12/02 04:52:26;;;;;;;;;;;20.40;40.70;;;;;;5108572;27;20280;-59
2021/12/02 04:54:53;;;;;;;;;;;20.30;40.60;;;;;;5095832;28;20018;-60
2021/12/02 04:57:20;;;;;;;;;;;20.30;40.60;;;;;;5107251;27;19950;-59
2021/12/02 04:59:46;;;;;;;;;;;20.30;40.60;;;;;;5101371;27;19928;-58
2021/12/02 05:02:13;;;;;;;;;;;20.30;40.60;;;;;;5105199;27;19931;-60
2021/12/02 05:04:40;;;;;;;;;;;20.30;40.60;;;;;;5095536;27;19931;-57
2021/12/02 05:07:07;;;;;;;;;;;20.30;40.60;;;;;;5122143;27;20439;-60
2021/12/02 05:09:35;;;;;;;;;;;20.30;40.60;;;;;;5105839;27;19924;-60
2021/12/02 05:12:02;;;;;;;;;;;20.30;40.60;;;;;;5106428;27;20026;-60
2021/12/02 05:14:31;;;;;;;;;;;20.30;40.60;;;;;;5091511;27;20035;-56
2021/12/02 05:16:58;;;;;;;;;;;20.30;40.60;;;;;;5102162;28;20340;-58
2021/12/02 05:19:25;;;;;;;;;;;20.30;40.50;;;;;;5110352;27;19935;-57
2021/12/02 05:21:51;;;;;;;;;;;20.30;40.50;;;;;;5110536;27;20014;-57
2021/12/02 05:24:18;;;;;;;;;;;20.30;40.50;;;;;;5096907;28;19981;-59
2021/12/02 05:26:46;;;;;;;;;;;20.30;40.50;;;;;;5096175;28;19923;-53
2021/12/02 05:29:13;;;;;;;;;;;20.30;40.50;;;;;;5102143;28;19963;-56
2021/12/02 05:31:40;;;;;;;;;;;20.30;40.50;;;;;;5094743;28;19932;-55
2021/12/02 05:34:07;;;;;;;;;;;20.30;40.40;;;;;;5119379;27;19927;-55
2021/12/02 05:36:34;;;;;;;;;;;20.30;41.00;;;;;;5124135;27;19949;-58
2021/12/02 05:39:04;;;;;;;;;;;20.30;40.40;;;;;;5107148;27;19924;-59
2021/12/02 05:41:31;;;;;;;;;;;20.30;40.40;;;;;;5102614;28;19928;-57
2021/12/02 05:44:00;;;;;;;;;;;20.30;40.40;;;;;;5105707;27;20291;-53
2021/12/02 05:46:30;;;;;;;;;;;20.30;40.40;;;;;;5102733;27;19937;-57
2021/12/02 05:48:56;;;;;;;;;;;20.30;40.30;;;;;;5104313;27;19927;-57
2021/12/02 05:51:23;;;;;;;;;;;20.30;40.30;;;;;;5113620;27;19938;-56
2021/12/02 05:53:50;;;;;;;;;;;20.30;40.30;;;;;;5105133;27;19931;-60
2021/12/02 05:56:17;;;;;;;;;;;20.30;40.30;;;;;;5102086;27;20061;-59
2021/12/02 05:58:44;;;;;;;;;;;20.30;40.30;;;;;;5105767;27;19955;-57
2021/12/02 06:01:12;;;;;;;;;;;20.30;40.30;;;;;;5095911;28;19928;-55
2021/12/02 06:03:40;;;;;;;;;;;20.30;40.20;;;;;;5092857;28;19924;-54
2021/12/02 06:06:07;;;;;;;;;;;20.30;40.20;;;;;;5096541;28;19930;-53
2021/12/02 06:08:35;;;;;;;;;;;20.30;40.20;;;;;;5107816;27;19927;-59
2021/12/02 06:11:02;;;;;;;;;;;20.30;40.20;;;;;;5105447;27;20369;-53
2021/12/02 06:13:29;;;;;;;;;;;20.30;40.20;;;;;;5099746;28;20448;-58
2021/12/02 06:15:56;;;;;;;;;;;20.30;40.20;;;;;;5107497;27;19924;-57
2021/12/02 06:18:24;;;;;;;;;;;20.30;40.10;;;;;;5121084;27;19931;-55
2021/12/02 06:20:55;;;;;;;;;;;20.30;40.10;;;;;;5116341;27;20254;-54
2021/12/02 06:23:22;;;;;;;;;;;20.30;40.10;;;;;;5127047;27;19949;-56
2021/12/02 06:25:48;;;;;;;;;;;20.30;40.10;;;;;;5124082;27;19970;-59
2021/12/02 06:28:16;;;;;;;;;;;20.30;40.10;;;;;;5106867;27;19931;-59
2021/12/02 06:30:42;;;;;;;;;;;20.30;40.10;;;;;;5127806;27;20390;-57
2021/12/02 06:33:09;;;;;;;;;;;20.30;40.00;;;;;;5094716;28;19962;-56
2021/12/02 06:35:37;;;;;;;;;;;20.30;40.00;;;;;;5122517;27;20030;-58
2021/12/02 06:38:04;;;;;;;;;;;20.30;40.00;;;;;;5088065;28;19931;-60
2021/12/02 06:40:31;;;;;;;;;;;20.30;40.00;;;;;;5123101;27;19967;-55
2021/12/02 06:42:58;;;;;;;;;;;20.30;40.00;;;;;;5106149;27;19931;-61
2021/12/02 06:45:25;;;;;;;;;;;20.30;40.00;;;;;;5094300;28;20316;-58
2021/12/02 06:47:57;;;;;;;;;;;20.30;40.00;;;;;;5090287;28;20411;-58
2021/12/02 06:50:23;;;;;;;;;;;20.30;40.00;;;;;;5125653;27;19932;-57
2021/12/02 06:52:52;;;;;;;;;;;20.30;40.00;;;;;;5105521;27;19973;-57
2021/12/02 06:55:19;;;;;;;;;;;20.30;39.90;;;;;;5122683;27;20406;-59
2021/12/02 06:57:46;;;;;;;;;;;20.30;39.90;;;;;;5108730;27;19924;-60
2021/12/02 07:00:14;;;;;;;;;;;20.30;40.00;;;;;;5084686;28;20361;-58
2021/12/02 07:02:41;;;;;;;;;;;20.20;39.80;;;;;;5101366;27;19924;-55
2021/12/02 07:05:08;;;;;;;;;;;20.30;39.90;;;;;;5103560;28;19928;-58
2021/12/02 07:07:36;;;;;;;;;;;20.30;39.90;;;;;;5086030;28;19981;-56
2021/12/02 07:10:05;;;;;;;;;;;20.30;39.90;;;;;;5089360;28;19924;-60
2021/12/02 07:12:33;;;;;;;;;;;20.30;39.80;;;;;;5108426;27;19935;-56
2021/12/02 07:15:05;;;;;;;;;;;20.20;39.70;;;;;;5085290;27;20340;-58
2021/12/02 07:17:32;;;;;;;;;;;20.20;39.70;;;;;;5103871;28;20396;-59
2021/12/02 07:20:00;;;;;;;;;;;20.30;39.80;;;;;;5102403;27;20014;-61
2021/12/02 07:22:27;;;;;;;;;;;20.20;39.70;;;;;;5083684;28;19931;-59
2021/12/02 07:24:53;;;;;;;;;;;20.30;39.80;;;;;;5095912;28;19930;-60
2021/12/02 07:27:21;;;;;;;;;;;20.30;39.70;;;;;;5091750;28;19954;-59
2021/12/02 07:29:48;;;;;;;;;;;20.30;39.80;;;;;;5096471;28;20008;-58
2021/12/02 07:32:15;;;;;;;;;;;20.30;39.70;;;;;;5096936;28;19924;-57
2021/12/02 07:34:43;;;;;;;;;;;20.30;39.70;;;;;;5101671;27;19931;-60
2021/12/02 07:37:10;;;;;;;;;;;20.20;39.60;;;;;;5106088;28;20488;-61
2021/12/02 07:39:37;;;;;;;;;;;20.20;39.60;;;;;;5122125;28;20373;-59
2021/12/02 07:42:04;;;;;;;;;;;20.30;39.70;;;;;;5127478;28;19930;-61
2021/12/02 07:44:32;;;;;;;;;;;20.30;39.80;;;;;;5116651;28;19950;-61
2021/12/02 07:46:59;;;;;;;;;;;20.20;39.70;;;;;;5103316;28;19930;-60
2021/12/02 07:49:26;;;;;;;;;;;20.20;39.70;;;;;;5099652;28;20039;-61
2021/12/02 07:51:53;;;;;;;;;;;20.30;40.00;;;;;;5122525;28;19924;-60
2021/12/02 07:54:19;;;;;;;;;;;20.30;39.90;;;;;;5100467;27;20425;-61
2021/12/02 07:56:46;;;;;;;;;;;20.30;39.90;;;;;;5110094;27;19973;-60
2021/12/02 07:59:16;;;;;;;;;;;20.30;39.90;;;;;;5112191;27;19924;-54
2021/12/02 08:01:44;;;;;;;;;;;20.30;39.90;;;;;;5113056;27;19934;-60
2021/12/02 08:04:11;;;;;;;;;;;20.30;39.20;;;;;;5090085;28;19934;-57
2021/12/02 08:06:38;;;;;;;;;;;20.20;38.20;;;;;;5103131;28;19959;-58
2021/12/02 08:09:06;;;;;;;;;;;20.20;37.70;;;;;;5105286;27;20383;-60
2021/12/02 08:11:33;;;;;;;;;;;20.20;37.10;;;;;;5086471;28;19939;-62
2021/12/02 08:13:59;;;;;;;;;;;20.10;36.80;;;;;;5115071;27;19934;-57
2021/12/02 08:16:26;;;;;;;;;;;20.10;37.10;;;;;;5113166;27;19924;-57
2021/12/02 08:18:55;;;;;;;;;;;20.10;37.50;;;;;;5101704;27;19972;-56
2021/12/02 08:21:21;;;;;;;;;;;20.10;37.70;;;;;;5104084;27;19924;-61
2021/12/02 08:23:48;;;;;;;;;;;20.10;37.90;;;;;;5102166;27;19932;-57
2021/12/02 08:26:16;;;;;;;;;;;20.10;38.20;;;;;;5100976;27;20324;-56
2021/12/02 08:28:43;;;;;;;;;;;20.10;38.30;;;;;;5100690;27;19931;-57
2021/12/02 08:31:10;;;;;;;;;;;20.10;38.40;;;;;;5099938;27;19923;-58
2021/12/02 08:33:36;;;;;;;;;;;20.10;38.40;;;;;;5091979;27;20014;-51
2021/12/02 08:36:05;;;;;;;;;;;20.10;38.50;;;;;;5106345;27;19965;-59
2021/12/02 08:38:33;;;;;;;;;;;20.10;38.60;;;;;;5095643;27;19966;-52
2021/12/02 08:41:00;;;;;;;;;;;20.10;38.60;;;;;;5113464;27;19927;-52
2021/12/02 08:43:27;;;;;;;;;;;20.10;38.70;;;;;;5084398;28;20064;-51
2021/12/02 08:45:53;;;;;;;;;;;20.20;38.80;;;;;;5106355;27;20018;-58
2021/12/02 08:48:20;;;;;;;;;;;20.10;38.70;;;;;;5099745;28;20038;-51
2021/12/02 08:50:47;;;;;;;;;;;20.20;38.80;;;;;;5086293;27;20328;-51
2021/12/02 08:53:15;;;;;;;;;;;20.20;38.90;;;;;;5090976;28;19938;-53
2021/12/02 08:55:43;;;;;;;;;;;20.20;38.80;;;;;;5088324;27;20005;-55
2021/12/02 08:58:10;;;;;;;;;;;20.20;38.90;;;;;;5127029;27;19976;-60
2021/12/02 09:00:39;;;;;;;;;;;20.20;38.90;;;;;;5085868;28;20023;-57
2021/12/02 09:03:07;;;;;;;;;;;20.20;39.00;;;;;;5094071;28;19977;-58
2021/12/02 09:05:34;;;;;;;;;;;20.20;39.00;;;;;;5112230;27;19928;-60
2021/12/02 09:08:02;;;;;;;;;;;20.20;39.00;;;;;;5114683;27;19932;-60
2021/12/02 09:10:30;;;;;;;;;;;20.20;39.00;;;;;;5083595;27;20046;-58
2021/12/02 09:12:57;;;;;;;;;;;20.20;39.10;;;;;;5107378;27;19931;-57
2021/12/02 09:15:24;;;;;;;;;;;20.30;39.20;;;;;;5108319;27;19932;-59
2021/12/02 09:17:51;;;;;;;;;;;20.30;39.20;;;;;;5097889;28;19962;-60
2021/12/02 09:20:17;;;;;;;;;;;20.30;39.20;;;;;;5120670;27;19935;-57
2021/12/02 09:22:44;;;;;;;;;;;20.30;39.20;;;;;;5117657;27;19978;-59
2021/12/02 09:25:11;;;;;;;;;;;20.30;39.80;;;;;;5103219;28;19930;-58
2021/12/02 09:27:40;;;;;;;;;;;20.30;39.20;;;;;;5097304;27;20054;-58
2021/12/02 09:30:07;;;;;;;;;;;20.30;39.20;;;;;;5111076;27;20376;-56
2021/12/02 09:32:34;;;;;;;;;;;20.30;39.20;;;;;;5093392;28;20345;-57
2021/12/02 09:35:01;;;;;;;;;;;20.30;39.20;;;;;;5124163;27;19995;-60
2021/12/02 09:37:27;;;;;;;;;;;20.30;39.30;;;;;;5100628;27;20047;-58
2021/12/02 09:39:54;;;;;;;;;;;20.30;39.20;;;;;;5104161;27;20368;-54
2021/12/02 09:42:21;;;;;;;;;;;20.30;39.30;;;;;;5097693;28;19935;-59
2021/12/02 09:44:54;;;;;;;;;;;20.30;39.30;;;;;;5089365;27;19924;-60
2021/12/02 09:47:21;;;;;;;;;;;20.30;39.30;;;;;;5105631;28;19928;-58
2021/12/02 09:49:47;;;;;;;;;;;20.30;39.30;;;;;;5090499;28;19928;-56
2021/12/02 09:52:16;;;;;;;;;;;20.30;39.30;;;;;;5095908;28;19924;-57
2021/12/02 09:54:47;;;;;;;;;;;20.40;39.40;;;;;;5088227;28;20369;-56
2021/12/02 09:57:17;;;;;;;;;;;20.40;39.30;;;;;;5101196;27;20354;-55
2021/12/02 09:59:50;;;;;;;;;;;20.40;39.30;;;;;;5100524;27;20024;-56
2021/12/02 10:02:20;;;;;;;;;;;20.40;39.30;;;;;;5106865;27;19972;-56
2021/12/02 10:04:51;;;;;;;;;;;20.40;39.40;;;;;;5107276;27;19923;-55
2021/12/02 10:07:21;;;;;;;;;;;20.40;39.40;;;;;;5102077;27;19959;-57
2021/12/02 10:09:55;;;;;;;;;;;20.40;39.40;;;;;;5100187;28;19924;-55
2021/12/02 10:12:23;;;;;;;;;;;20.40;39.30;;;;;;5088104;28;19931;-56
2021/12/02 10:14:50;;;;;;;;;;;20.40;39.40;;;;;;5081826;28;19936;-59
2021/12/02 10:17:21;;;;;;;;;;;20.40;39.40;;;;;;5101874;27;20000;-56
2021/12/02 10:20:10;;;;;;;;;;;20.40;39.40;;;;;;5102289;27;20331;-58
2021/12/02 10:22:37;;;;;;;;;;;20.40;39.40;;;;;;5104055;27;20014;-57
2021/12/02 10:25:04;;;;;;;;;;;20.40;39.40;;;;;;5093275;28;20027;-55
2021/12/02 10:27:30;;;;;;;;;;;20.40;39.40;;;;;;5113717;27;20050;-57
2021/12/02 10:29:57;;;;;;;;;;;20.40;39.40;;;;;;5105158;27;20034;-58
2021/12/02 10:32:26;;;;;;;;;;;20.40;39.40;;;;;;5127820;27;20015;-57
2021/12/02 10:34:54;;;;;;;;;;;20.50;39.50;;;;;;5093710;27;19924;-57
2021/12/02 10:37:20;;;;;;;;;;;20.40;39.40;;;;;;5086514;28;19928;-61
2021/12/02 10:39:57;;;;;;;;;;;20.40;35.00;;;;;;5087455;28;19930;-59
2021/12/02 10:42:24;;;;;;;;;;;20.30;30.70;;;;;;5095407;28;19934;-57
2021/12/02 10:44:51;;;;;;;;;;;20.10;33.10;;;;;;5083503;28;20384;-60
2021/12/02 10:47:19;;;;;;;;;;;20.00;33.20;;;;;;5075661;27;20241;-57
2021/12/02 10:49:48;;;;;;;;;;;20.00;34.10;;;;;;5098030;28;19963;-57
2021/12/02 10:52:16;;;;;;;;;;;19.90;34.80;;;;;;5094878;28;19930;-59
2021/12/02 10:54:44;;;;;;;;;;;19.90;35.30;;;;;;5067585;28;19931;-57
2021/12/02 10:57:11;;;;;;;;;;;19.90;35.70;;;;;;5089482;28;19977;-58
2021/12/02 11:05:03;;;;;;;;;;;19.90;36.60;;;;;;1109651;22;20183;-61
2021/12/02 11:07:33;;;;;;;;;;;19.90;36.70;;;;;;5021780;28;20022;-62
2021/12/02 11:10:00;;;;;;;;;;;20.00;37.00;;;;;;5027571;28;19933;-61
2021/12/02 11:12:27;;;;;;;;;;;20.00;37.20;;;;;;5025563;28;19983;-61
2021/12/02 11:15:12;;;;;;;;;;;20.00;37.40;;;;;;5025865;28;20387;-59
2021/12/02 11:17:40;;;;;;;;;;;20.00;37.40;;;;;;5023482;28;20286;-58
2021/12/02 11:20:08;;;;;;;;;;;20.00;37.40;;;;;;5024684;28;20020;-59
2021/12/02 11:22:36;;;;;;;;;;;20.10;37.60;;;;;;5022308;28;20016;-58
2021/12/02 11:25:04;;;;;;;;;;;20.10;37.60;;;;;;5028648;28;19956;-60
2021/12/02 11:27:35;;;;;;;;;;;20.10;37.70;;;;;;5023182;28;20023;-60
2021/12/02 11:30:04;;;;;;;;;;;20.10;37.70;;;;;;5021787;28;20373;-60
2021/12/02 11:32:32;;;;;;;;;;;20.20;37.80;;;;;;5024049;28;19929;-61
2021/12/02 11:34:59;;;;;;;;;;;20.20;37.90;;;;;;5019265;28;20008;-58
2021/12/02 11:37:26;;;;;;;;;;;20.20;38.00;;;;;;5023542;28;20028;-58
2021/12/02 11:39:57;;;;;;;;;;;20.20;38.00;;;;;;5008453;28;22470;-56
2021/12/02 11:42:24;;;;;;;;;;;20.20;38.10;;;;;;5024052;28;19926;-55
2021/12/02 11:44:51;;;;;;;;;;;20.20;38.10;;;;;;5020029;28;19957;-56
2021/12/02 11:47:18;;;;;;;;;;;20.20;38.20;;;;;;5027768;28;20017;-55
2021/12/02 11:49:45;;;;;;;;;;;20.30;38.30;;;;;;5022829;28;19933;-54
2021/12/02 11:54:55;;;;;;;;;;;20.20;38.30;;;;;;5002977;23;19933;-55
2021/12/02 11:57:24;;;;;;;;;;;20.30;38.30;;;;;;4987908;28;20016;-54
2021/12/02 11:59:50;;;;;;;;;;;20.30;38.30;;;;;;4974562;28;19937;-51
2021/12/02 12:02:17;;;;;;;;;;;20.30;38.30;;;;;;4991507;28;20412;-51
2021/12/02 12:04:52;;;;;;;;;;;20.30;38.30;;;;;;4995131;28;19926;-51
2021/12/02 12:07:20;;;;;;;;;;;20.30;38.30;;;;;;4992591;28;19929;-50
2021/12/02 12:09:47;;;;;;;;;;;20.30;38.40;;;;;;4989824;28;19930;-51
2021/12/02 12:12:13;;;;;;;;;;;20.30;38.40;;;;;;4983318;28;19945;-50
2021/12/02 12:14:42;;;;;;;;;;;20.30;38.40;;;;;;4989913;28;19930;-57
2021/12/02 12:17:09;;;;;;;;;;;20.40;38.50;;;;;;4998624;28;20424;-51
2021/12/02 12:19:39;;;;;;;;;;;20.30;38.40;;;;;;4991409;28;19926;-53
2021/12/02 12:22:07;;;;;;;;;;;20.30;38.40;;;;;;4980759;28;19957;-51
2021/12/02 12:24:40;;;;;;;;;;;20.30;38.40;;;;;;4990513;28;19949;-51
2021/12/02 12:27:10;;;;;;;;;;;20.30;38.40;;;;;;4989348;28;19965;-53
2021/12/02 12:29:37;;;;;;;;;;;20.30;38.50;;;;;;4991854;28;19936;-54
2021/12/02 12:32:32;;;;;;;;;;;20.30;38.50;;;;;;5004996;28;19964;-49
2021/12/02 12:35:03;;;;;;;;;;;20.30;38.50;;;;;;4993578;28;19992;-50
2021/12/02 12:37:46;;;;;;;;;;;20.30;38.50;;;;;;5002032;28;19958;-51
2021/12/02 12:40:14;;;;;;;;;;;20.30;38.40;;;;;;4987722;28;20516;-52
2021/12/02 12:42:41;;;;;;;;;;;20.30;38.40;;;;;;4997937;28;19926;-55
2021/12/02 12:45:08;;;;;;;;;;;20.30;38.40;;;;;;4989726;28;19944;-58
2021/12/02 12:47:45;;;;;;;;;;;20.40;38.50;;;;;;4991984;28;19934;-55
2021/12/02 12:50:23;;;;;;;;;;;20.30;32.60;;;;;;5001938;28;19925;-55
2021/12/02 12:52:53;;;;;;;;;;;20.10;28.60;;;;;;4992118;28;20103;-51
2021/12/02 12:55:20;;;;;;;;;;;20.00;29.90;;;;;;4999083;28;20457;-49
2021/12/02 12:58:05;;;;;;;;;;;19.90;31.00;;;;;;4993301;28;19933;-49
2021/12/02 13:00:36;;;;;;;;;;;19.80;32.30;;;;;;4983832;28;20254;-54
2021/12/02 13:03:04;;;;;;;;;;;19.80;33.50;;;;;;4992042;28;19930;-53
2021/12/02 13:05:43;;;;;;;;;;;19.80;34.00;;;;;;4982467;28;20006;-57
2021/12/02 13:08:16;;;;;;;;;;;19.80;34.70;;;;;;4998072;28;19932;-54
2021/12/02 13:10:48;;;;;;;;;;;19.80;35.10;;;;;;4998432;28;20375;-53
2021/12/02 13:13:20;;;;;;;;;;;19.90;35.40;;;;;;4989067;28;19972;-49
2021/12/02 13:15:47;;;;;;;;;;;19.90;35.70;;;;;;4990669;28;19926;-53
2021/12/02 13:18:20;;;;;;;;;;;19.90;35.90;;;;;;4989981;28;20285;-54
2021/12/02 13:20:49;;;;;;;;;;;20.00;36.10;;;;;;5004322;28;19981;-53
2021/12/02 13:23:27;;;;;;;;;;;20.00;36.30;;;;;;4994939;28;19960;-54
2021/12/02 13:25:55;;;;;;;;;;;20.00;36.40;;;;;;5000867;28;19954;-52
2021/12/02 13:28:23;;;;;;;;;;;20.10;36.60;;;;;;5000749;28;19977;-58
2021/12/02 13:30:51;;;;;;;;;;;20.10;36.70;;;;;;5001329;28;20021;-49
2021/12/02 13:33:18;;;;;;;;;;;20.10;36.70;;;;;;4992003;28;20186;-52
2021/12/02 13:35:45;;;;;;;;;;;20.10;36.80;;;;;;4991105;28;20393;-52
2021/12/02 13:38:14;;;;;;;;;;;20.10;36.90;;;;;;4998673;28;19933;-55
2021/12/02 13:40:41;;;;;;;;;;;20.20;37.00;;;;;;4986948;28;20398;-49
2021/12/02 13:43:08;;;;;;;;;;;20.20;37.10;;;;;;4999920;28;20085;-55
2021/12/02 13:45:36;;;;;;;;;;;20.20;37.10;;;;;;4991736;28;20353;-52
2021/12/02 13:48:06;;;;;;;;;;;20.20;37.20;;;;;;4994775;28;19930;-52
2021/12/02 13:50:35;;;;;;;;;;;20.20;37.30;;;;;;4994351;28;20033;-51
2021/12/02 13:53:01;;;;;;;;;;;20.20;37.30;;;;;;4985639;28;19926;-57
2021/12/02 13:55:36;;;;;;;;;;;20.30;37.40;;;;;;5004170;28;19930;-51
2021/12/02 13:58:06;;;;;;;;;;;20.30;37.50;;;;;;4988733;28;19929;-55
2021/12/02 14:00:33;;;;;;;;;;;20.30;37.50;;;;;;4988639;28;20322;-55
2021/12/02 14:03:01;;;;;;;;;;;20.30;37.50;;;;;;4992878;28;19932;-57
2021/12/02 14:05:28;;;;;;;;;;;20.30;37.60;;;;;;4984757;28;19930;-56
2021/12/02 14:07:56;;;;;;;;;;;20.30;37.60;;;;;;4990930;28;20254;-53
2021/12/02 14:10:24;;;;;;;;;;;20.30;37.60;;;;;;4999138;28;19980;-54
2021/12/02 14:12:53;;;;;;;;;;;20.30;37.60;;;;;;4991016;28;19980;-53
2021/12/02 14:15:21;;;;;;;;;;;20.30;37.60;;;;;;4989535;28;19930;-55
2021/12/02 14:17:49;;;;;;;;;;;20.30;37.60;;;;;;4980453;28;20391;-55
2021/12/02 14:20:16;;;;;;;;;;;20.30;37.60;;;;;;4996268;28;20553;-56
2021/12/02 14:22:43;;;;;;;;;;;20.30;37.60;;;;;;4985957;28;19930;-53
2021/12/02 14:25:11;;;;;;;;;;;20.30;37.60;;;;;;4997311;28;20028;-55
2021/12/02 14:27:38;;;;;;;;;;;20.30;37.70;;;;;;4989589;28;19929;-54
2021/12/02 14:30:14;;;;;;;;;;;20.30;37.70;;;;;;4985426;28;19996;-55
2021/12/02 14:32:42;;;;;;;;;;;20.30;37.60;;;;;;4994923;28;20363;-58
2021/12/02 14:35:11;;;;;;;;;;;20.30;37.70;;;;;;4995055;28;19929;-57